sensor_id;sensor_type;location;lat;lon;timestamp;P1;durP1;ratioP1;P2;durP2;ratioP2
17606;SDS011;69222;52.242;20.980;2023-05-07T00:00:00;2.67;;;2.47;;
17606;SDS011;69222;52.242;20.980;2023-05-07T00:02:29;3.53;;;3.00;;
17606;SDS011;69222;52.242;20.980;2023-05-07T00:04:57;5.43;;;2.87;;
17606;SDS011;69222;52.242;20.980;2023-05-07T00:07:26;5.73;;;2.80;;
17606;SDS011;69222;52.242;20.980;2023-05-07T00:09:54;4.20;;;3.10;;
17606;SDS011;69222;52.242;20.980;2023-05-07T00:12:22;3.57;;;2.70;;
17606;SDS011;69222;52.242;20.980;2023-05-07T00:14:49;4.47;;;2.87;;
17606;SDS011;69222;52.242;20.980;2023-05-07T00:17:17;4.67;;;2.77;;
17606;SDS011;69222;52.242;20.980;2023-05-07T00:19:46;3.57;;;2.60;;
17606;SDS011;69222;52.242;20.980;2023-05-07T00:22:14;3.10;;;2.70;;
17606;SDS011;69222;52.242;20.980;2023-05-07T00:24:43;3.63;;;3.30;;
17606;SDS011;69222;52.242;20.980;2023-05-07T00:27:11;5.57;;;3.37;;
17606;SDS011;69222;52.242;20.980;2023-05-07T00:29:38;3.40;;;3.10;;
17606;SDS011;69222;52.242;20.980;2023-05-07T00:32:06;3.80;;;2.97;;
17606;SDS011;69222;52.242;20.980;2023-05-07T00:34:35;3.37;;;2.93;;
17606;SDS011;69222;52.242;20.980;2023-05-07T00:37:03;3.83;;;3.17;;
17606;SDS011;69222;52.242;20.980;2023-05-07T00:39:32;5.40;;;2.90;;
17606;SDS011;69222;52.242;20.980;2023-05-07T00:42:01;4.20;;;3.30;;
17606;SDS011;69222;52.242;20.980;2023-05-07T00:44:29;5.00;;;3.57;;
17606;SDS011;69222;52.242;20.980;2023-05-07T00:46:57;5.27;;;3.13;;
17606;SDS011;69222;52.242;20.980;2023-05-07T00:49:25;4.33;;;3.00;;
17606;SDS011;69222;52.242;20.980;2023-05-07T00:52:01;3.23;;;2.73;;
17606;SDS011;69222;52.242;20.980;2023-05-07T00:54:29;5.07;;;3.07;;
17606;SDS011;69222;52.242;20.980;2023-05-07T00:56:58;3.77;;;2.50;;
17606;SDS011;69222;52.242;20.980;2023-05-07T00:59:27;3.33;;;3.00;;
17606;SDS011;69222;52.242;20.980;2023-05-07T01:01:55;4.73;;;3.10;;
17606;SDS011;69222;52.242;20.980;2023-05-07T01:04:24;3.27;;;2.70;;
17606;SDS011;69222;52.242;20.980;2023-05-07T01:06:52;5.90;;;2.80;;
17606;SDS011;69222;52.242;20.980;2023-05-07T01:09:23;2.93;;;2.53;;
17606;SDS011;69222;52.242;20.980;2023-05-07T01:11:52;4.67;;;2.67;;
17606;SDS011;69222;52.242;20.980;2023-05-07T01:14:23;2.87;;;2.60;;
17606;SDS011;69222;52.242;20.980;2023-05-07T01:16:53;4.50;;;2.40;;
17606;SDS011;69222;52.242;20.980;2023-05-07T01:19:21;5.70;;;2.40;;
17606;SDS011;69222;52.242;20.980;2023-05-07T01:21:49;2.90;;;2.63;;
17606;SDS011;69222;52.242;20.980;2023-05-07T01:24:20;3.07;;;2.57;;
17606;SDS011;69222;52.242;20.980;2023-05-07T01:26:48;2.77;;;2.37;;
17606;SDS011;69222;52.242;20.980;2023-05-07T01:29:16;4.03;;;2.60;;
17606;SDS011;69222;52.242;20.980;2023-05-07T01:31:44;2.63;;;2.27;;
17606;SDS011;69222;52.242;20.980;2023-05-07T01:34:12;2.30;;;2.10;;
17606;SDS011;69222;52.242;20.980;2023-05-07T01:36:42;3.10;;;2.20;;
17606;SDS011;69222;52.242;20.980;2023-05-07T01:39:10;3.53;;;2.63;;
17606;SDS011;69222;52.242;20.980;2023-05-07T01:41:40;2.57;;;2.20;;
17606;SDS011;69222;52.242;20.980;2023-05-07T01:44:10;2.60;;;2.40;;
17606;SDS011;69222;52.242;20.980;2023-05-07T01:46:40;5.67;;;3.03;;
17606;SDS011;69222;52.242;20.980;2023-05-07T01:49:08;3.10;;;2.63;;
17606;SDS011;69222;52.242;20.980;2023-05-07T01:51:36;2.50;;;2.30;;
17606;SDS011;69222;52.242;20.980;2023-05-07T01:54:04;2.90;;;2.60;;
17606;SDS011;69222;52.242;20.980;2023-05-07T01:56:32;3.00;;;2.10;;
17606;SDS011;69222;52.242;20.980;2023-05-07T01:59:02;2.50;;;2.23;;
17606;SDS011;69222;52.242;20.980;2023-05-07T02:01:29;3.93;;;2.50;;
17606;SDS011;69222;52.242;20.980;2023-05-07T02:03:57;2.97;;;2.00;;
17606;SDS011;69222;52.242;20.980;2023-05-07T02:06:25;2.40;;;2.20;;
17606;SDS011;69222;52.242;20.980;2023-05-07T02:08:53;3.10;;;2.50;;
17606;SDS011;69222;52.242;20.980;2023-05-07T02:11:21;3.60;;;2.73;;
17606;SDS011;69222;52.242;20.980;2023-05-07T02:13:49;5.63;;;2.70;;
17606;SDS011;69222;52.242;20.980;2023-05-07T02:16:18;4.67;;;2.07;;
17606;SDS011;69222;52.242;20.980;2023-05-07T02:18:47;2.40;;;2.20;;
17606;SDS011;69222;52.242;20.980;2023-05-07T02:21:15;4.67;;;2.40;;
17606;SDS011;69222;52.242;20.980;2023-05-07T02:23:43;2.50;;;2.27;;
17606;SDS011;69222;52.242;20.980;2023-05-07T02:26:11;5.87;;;2.43;;
17606;SDS011;69222;52.242;20.980;2023-05-07T02:28:39;4.23;;;2.50;;
17606;SDS011;69222;52.242;20.980;2023-05-07T02:31:07;4.17;;;2.27;;
17606;SDS011;69222;52.242;20.980;2023-05-07T02:33:36;5.57;;;2.10;;
17606;SDS011;69222;52.242;20.980;2023-05-07T02:36:07;3.17;;;2.10;;
17606;SDS011;69222;52.242;20.980;2023-05-07T02:38:36;2.43;;;2.23;;
17606;SDS011;69222;52.242;20.980;2023-05-07T02:41:03;3.03;;;2.40;;
17606;SDS011;69222;52.242;20.980;2023-05-07T02:43:31;2.03;;;1.80;;
17606;SDS011;69222;52.242;20.980;2023-05-07T02:46:00;2.40;;;2.10;;
17606;SDS011;69222;52.242;20.980;2023-05-07T02:48:29;4.43;;;2.53;;
17606;SDS011;69222;52.242;20.980;2023-05-07T02:50:58;4.37;;;2.43;;
17606;SDS011;69222;52.242;20.980;2023-05-07T02:53:26;3.00;;;2.20;;
17606;SDS011;69222;52.242;20.980;2023-05-07T02:55:55;3.07;;;2.10;;
17606;SDS011;69222;52.242;20.980;2023-05-07T02:58:25;2.77;;;2.30;;
17606;SDS011;69222;52.242;20.980;2023-05-07T03:00:53;2.27;;;2.07;;
17606;SDS011;69222;52.242;20.980;2023-05-07T03:03:21;3.13;;;2.40;;
17606;SDS011;69222;52.242;20.980;2023-05-07T03:05:49;4.23;;;2.70;;
17606;SDS011;69222;52.242;20.980;2023-05-07T03:08:19;2.90;;;2.20;;
17606;SDS011;69222;52.242;20.980;2023-05-07T03:10:46;2.63;;;2.43;;
17606;SDS011;69222;52.242;20.980;2023-05-07T03:13:14;2.83;;;2.43;;
17606;SDS011;69222;52.242;20.980;2023-05-07T03:15:42;3.43;;;2.00;;
17606;SDS011;69222;52.242;20.980;2023-05-07T03:18:10;2.73;;;1.97;;
17606;SDS011;69222;52.242;20.980;2023-05-07T03:20:39;2.77;;;2.20;;
17606;SDS011;69222;52.242;20.980;2023-05-07T03:23:06;2.67;;;2.13;;
17606;SDS011;69222;52.242;20.980;2023-05-07T03:25:36;2.97;;;1.87;;
17606;SDS011;69222;52.242;20.980;2023-05-07T03:28:03;2.70;;;2.33;;
17606;SDS011;69222;52.242;20.980;2023-05-07T03:30:31;2.10;;;1.90;;
17606;SDS011;69222;52.242;20.980;2023-05-07T03:32:59;3.33;;;2.20;;
17606;SDS011;69222;52.242;20.980;2023-05-07T03:35:27;4.90;;;2.53;;
17606;SDS011;69222;52.242;20.980;2023-05-07T03:37:55;7.33;;;2.40;;
17606;SDS011;69222;52.242;20.980;2023-05-07T03:40:23;2.30;;;2.00;;
17606;SDS011;69222;52.242;20.980;2023-05-07T03:42:52;2.73;;;2.13;;
17606;SDS011;69222;52.242;20.980;2023-05-07T03:45:20;3.23;;;2.10;;
17606;SDS011;69222;52.242;20.980;2023-05-07T03:47:48;3.20;;;2.07;;
17606;SDS011;69222;52.242;20.980;2023-05-07T03:50:16;3.80;;;2.10;;
17606;SDS011;69222;52.242;20.980;2023-05-07T03:52:44;3.07;;;2.00;;
17606;SDS011;69222;52.242;20.980;2023-05-07T03:55:12;2.90;;;2.47;;
17606;SDS011;69222;52.242;20.980;2023-05-07T03:57:40;3.13;;;2.30;;
17606;SDS011;69222;52.242;20.980;2023-05-07T04:00:09;2.57;;;2.00;;
17606;SDS011;69222;52.242;20.980;2023-05-07T04:02:38;3.93;;;2.13;;
17606;SDS011;69222;52.242;20.980;2023-05-07T04:05:07;2.30;;;2.00;;
17606;SDS011;69222;52.242;20.980;2023-05-07T04:07:35;2.53;;;1.90;;
17606;SDS011;69222;52.242;20.980;2023-05-07T04:10:03;2.17;;;1.83;;
17606;SDS011;69222;52.242;20.980;2023-05-07T04:12:32;2.33;;;2.13;;
17606;SDS011;69222;52.242;20.980;2023-05-07T04:15:00;2.53;;;1.70;;
17606;SDS011;69222;52.242;20.980;2023-05-07T04:17:29;2.30;;;1.93;;
17606;SDS011;69222;52.242;20.980;2023-05-07T04:19:57;2.40;;;2.20;;
17606;SDS011;69222;52.242;20.980;2023-05-07T04:22:25;3.27;;;2.07;;
17606;SDS011;69222;52.242;20.980;2023-05-07T04:24:53;2.33;;;2.10;;
17606;SDS011;69222;52.242;20.980;2023-05-07T04:27:21;2.60;;;2.40;;
17606;SDS011;69222;52.242;20.980;2023-05-07T04:29:48;3.50;;;2.10;;
17606;SDS011;69222;52.242;20.980;2023-05-07T04:32:16;3.63;;;2.50;;
17606;SDS011;69222;52.242;20.980;2023-05-07T04:34:46;3.63;;;2.00;;
17606;SDS011;69222;52.242;20.980;2023-05-07T04:37:14;3.63;;;2.40;;
17606;SDS011;69222;52.242;20.980;2023-05-07T04:39:41;2.97;;;2.37;;
17606;SDS011;69222;52.242;20.980;2023-05-07T04:42:09;2.00;;;1.77;;
17606;SDS011;69222;52.242;20.980;2023-05-07T04:44:43;2.67;;;2.10;;
17606;SDS011;69222;52.242;20.980;2023-05-07T04:47:11;3.67;;;2.03;;
17606;SDS011;69222;52.242;20.980;2023-05-07T04:49:39;2.87;;;2.20;;
17606;SDS011;69222;52.242;20.980;2023-05-07T04:52:08;2.77;;;2.17;;
17606;SDS011;69222;52.242;20.980;2023-05-07T04:54:36;3.13;;;2.00;;
17606;SDS011;69222;52.242;20.980;2023-05-07T04:57:03;3.20;;;2.30;;
17606;SDS011;69222;52.242;20.980;2023-05-07T04:59:32;4.37;;;2.10;;
17606;SDS011;69222;52.242;20.980;2023-05-07T05:02:00;2.13;;;1.93;;
17606;SDS011;69222;52.242;20.980;2023-05-07T05:04:30;3.10;;;2.23;;
17606;SDS011;69222;52.242;20.980;2023-05-07T05:06:58;2.37;;;2.00;;
17606;SDS011;69222;52.242;20.980;2023-05-07T05:09:27;3.10;;;2.20;;
17606;SDS011;69222;52.242;20.980;2023-05-07T05:11:55;2.00;;;1.80;;
17606;SDS011;69222;52.242;20.980;2023-05-07T05:14:23;2.50;;;2.30;;
17606;SDS011;69222;52.242;20.980;2023-05-07T05:16:51;3.40;;;2.40;;
17606;SDS011;69222;52.242;20.980;2023-05-07T05:19:19;3.20;;;2.10;;
17606;SDS011;69222;52.242;20.980;2023-05-07T05:21:46;3.23;;;2.43;;
17606;SDS011;69222;52.242;20.980;2023-05-07T05:24:14;2.77;;;2.40;;
17606;SDS011;69222;52.242;20.980;2023-05-07T05:26:44;2.30;;;2.10;;
17606;SDS011;69222;52.242;20.980;2023-05-07T05:29:11;2.17;;;1.97;;
17606;SDS011;69222;52.242;20.980;2023-05-07T05:31:39;3.80;;;2.13;;
17606;SDS011;69222;52.242;20.980;2023-05-07T05:34:08;2.27;;;2.07;;
17606;SDS011;69222;52.242;20.980;2023-05-07T05:36:35;2.20;;;1.83;;
17606;SDS011;69222;52.242;20.980;2023-05-07T05:39:03;2.40;;;2.10;;
17606;SDS011;69222;52.242;20.980;2023-05-07T05:41:32;2.20;;;1.90;;
17606;SDS011;69222;52.242;20.980;2023-05-07T05:44:01;2.57;;;2.23;;
17606;SDS011;69222;52.242;20.980;2023-05-07T05:46:29;2.13;;;1.80;;
17606;SDS011;69222;52.242;20.980;2023-05-07T05:48:58;2.60;;;2.17;;
17606;SDS011;69222;52.242;20.980;2023-05-07T05:51:26;1.80;;;1.70;;
17606;SDS011;69222;52.242;20.980;2023-05-07T05:53:54;3.40;;;1.97;;
17606;SDS011;69222;52.242;20.980;2023-05-07T05:56:22;2.40;;;1.93;;
17606;SDS011;69222;52.242;20.980;2023-05-07T05:58:50;2.27;;;1.87;;
17606;SDS011;69222;52.242;20.980;2023-05-07T06:01:19;3.03;;;1.70;;
17606;SDS011;69222;52.242;20.980;2023-05-07T06:03:47;4.17;;;1.73;;
17606;SDS011;69222;52.242;20.980;2023-05-07T06:06:15;2.10;;;1.70;;
17606;SDS011;69222;52.242;20.980;2023-05-07T06:08:42;1.63;;;1.53;;
17606;SDS011;69222;52.242;20.980;2023-05-07T06:11:10;2.90;;;1.80;;
17606;SDS011;69222;52.242;20.980;2023-05-07T06:13:38;2.73;;;1.60;;
17606;SDS011;69222;52.242;20.980;2023-05-07T06:16:06;2.07;;;1.50;;
17606;SDS011;69222;52.242;20.980;2023-05-07T06:18:35;2.07;;;1.97;;
17606;SDS011;69222;52.242;20.980;2023-05-07T06:21:04;1.80;;;1.67;;
17606;SDS011;69222;52.242;20.980;2023-05-07T06:23:32;2.23;;;1.70;;
17606;SDS011;69222;52.242;20.980;2023-05-07T06:26:00;2.43;;;1.77;;
17606;SDS011;69222;52.242;20.980;2023-05-07T06:28:27;2.10;;;1.90;;
17606;SDS011;69222;52.242;20.980;2023-05-07T06:31:10;1.83;;;1.70;;
17606;SDS011;69222;52.242;20.980;2023-05-07T06:33:40;2.40;;;2.20;;
17606;SDS011;69222;52.242;20.980;2023-05-07T06:36:08;4.13;;;1.93;;
17606;SDS011;69222;52.242;20.980;2023-05-07T06:38:36;1.70;;;1.60;;
17606;SDS011;69222;52.242;20.980;2023-05-07T06:41:05;4.40;;;1.73;;
17606;SDS011;69222;52.242;20.980;2023-05-07T06:43:33;1.60;;;1.50;;
17606;SDS011;69222;52.242;20.980;2023-05-07T06:46:01;3.93;;;1.57;;
17606;SDS011;69222;52.242;20.980;2023-05-07T06:48:29;1.87;;;1.77;;
17606;SDS011;69222;52.242;20.980;2023-05-07T06:50:58;2.87;;;1.37;;
17606;SDS011;69222;52.242;20.980;2023-05-07T06:53:26;2.00;;;1.43;;
17606;SDS011;69222;52.242;20.980;2023-05-07T06:55:54;3.33;;;2.00;;
17606;SDS011;69222;52.242;20.980;2023-05-07T06:58:22;2.67;;;1.73;;
17606;SDS011;69222;52.242;20.980;2023-05-07T07:00:50;2.97;;;1.77;;
17606;SDS011;69222;52.242;20.980;2023-05-07T07:03:18;1.67;;;1.30;;
17606;SDS011;69222;52.242;20.980;2023-05-07T07:05:46;1.70;;;1.60;;
17606;SDS011;69222;52.242;20.980;2023-05-07T07:08:15;7.27;;;1.80;;
17606;SDS011;69222;52.242;20.980;2023-05-07T07:10:44;3.13;;;1.80;;
17606;SDS011;69222;52.242;20.980;2023-05-07T07:13:12;2.13;;;1.80;;
17606;SDS011;69222;52.242;20.980;2023-05-07T07:15:40;3.83;;;1.90;;
17606;SDS011;69222;52.242;20.980;2023-05-07T07:18:08;2.47;;;1.90;;
17606;SDS011;69222;52.242;20.980;2023-05-07T07:20:36;2.27;;;1.73;;
17606;SDS011;69222;52.242;20.980;2023-05-07T07:23:04;2.77;;;1.77;;
17606;SDS011;69222;52.242;20.980;2023-05-07T07:25:33;1.97;;;1.67;;
17606;SDS011;69222;52.242;20.980;2023-05-07T07:28:01;1.77;;;1.63;;
17606;SDS011;69222;52.242;20.980;2023-05-07T07:30:29;3.40;;;2.03;;
17606;SDS011;69222;52.242;20.980;2023-05-07T07:32:57;2.53;;;1.70;;
17606;SDS011;69222;52.242;20.980;2023-05-07T07:35:28;1.77;;;1.40;;
17606;SDS011;69222;52.242;20.980;2023-05-07T07:37:56;1.70;;;1.60;;
17606;SDS011;69222;52.242;20.980;2023-05-07T07:40:24;2.93;;;1.60;;
17606;SDS011;69222;52.242;20.980;2023-05-07T07:42:54;2.83;;;1.50;;
17606;SDS011;69222;52.242;20.980;2023-05-07T07:45:22;1.30;;;1.20;;
17606;SDS011;69222;52.242;20.980;2023-05-07T07:47:50;2.30;;;2.07;;
17606;SDS011;69222;52.242;20.980;2023-05-07T07:50:18;2.43;;;1.57;;
17606;SDS011;69222;52.242;20.980;2023-05-07T07:53:05;2.23;;;1.53;;
17606;SDS011;69222;52.242;20.980;2023-05-07T07:55:37;2.70;;;1.70;;
17606;SDS011;69222;52.242;20.980;2023-05-07T07:58:07;4.97;;;1.60;;
17606;SDS011;69222;52.242;20.980;2023-05-07T08:00:35;2.90;;;2.00;;
17606;SDS011;69222;52.242;20.980;2023-05-07T08:03:03;2.27;;;1.83;;
17606;SDS011;69222;52.242;20.980;2023-05-07T08:05:33;2.37;;;1.53;;
17606;SDS011;69222;52.242;20.980;2023-05-07T08:08:01;1.90;;;1.70;;
17606;SDS011;69222;52.242;20.980;2023-05-07T08:10:29;1.67;;;1.57;;
17606;SDS011;69222;52.242;20.980;2023-05-07T08:13:01;1.87;;;1.77;;
17606;SDS011;69222;52.242;20.980;2023-05-07T08:15:31;1.60;;;1.50;;
17606;SDS011;69222;52.242;20.980;2023-05-07T08:18:00;1.90;;;1.70;;
17606;SDS011;69222;52.242;20.980;2023-05-07T08:20:29;2.10;;;1.63;;
17606;SDS011;69222;52.242;20.980;2023-05-07T08:22:57;1.73;;;1.47;;
17606;SDS011;69222;52.242;20.980;2023-05-07T08:25:25;2.20;;;1.63;;
17606;SDS011;69222;52.242;20.980;2023-05-07T08:27:53;2.83;;;1.60;;
17606;SDS011;69222;52.242;20.980;2023-05-07T08:30:21;2.90;;;1.60;;
17606;SDS011;69222;52.242;20.980;2023-05-07T08:32:50;2.30;;;1.90;;
17606;SDS011;69222;52.242;20.980;2023-05-07T08:35:19;3.87;;;1.50;;
17606;SDS011;69222;52.242;20.980;2023-05-07T08:37:47;1.50;;;1.40;;
17606;SDS011;69222;52.242;20.980;2023-05-07T08:40:14;1.90;;;1.60;;
17606;SDS011;69222;52.242;20.980;2023-05-07T08:42:43;2.10;;;1.40;;
17606;SDS011;69222;52.242;20.980;2023-05-07T08:45:11;1.90;;;1.37;;
17606;SDS011;69222;52.242;20.980;2023-05-07T08:47:40;3.17;;;1.67;;
17606;SDS011;69222;52.242;20.980;2023-05-07T08:50:13;3.07;;;1.60;;
17606;SDS011;69222;52.242;20.980;2023-05-07T08:52:41;1.50;;;1.40;;
17606;SDS011;69222;52.242;20.980;2023-05-07T08:55:09;1.50;;;1.40;;
17606;SDS011;69222;52.242;20.980;2023-05-07T08:57:38;1.77;;;1.30;;
17606;SDS011;69222;52.242;20.980;2023-05-07T09:00:06;1.17;;;1.00;;
17606;SDS011;69222;52.242;20.980;2023-05-07T09:02:35;3.03;;;1.83;;
17606;SDS011;69222;52.242;20.980;2023-05-07T09:05:04;2.23;;;1.70;;
17606;SDS011;69222;52.242;20.980;2023-05-07T09:07:34;1.43;;;1.33;;
17606;SDS011;69222;52.242;20.980;2023-05-07T09:10:02;1.97;;;1.57;;
17606;SDS011;69222;52.242;20.980;2023-05-07T09:12:31;2.10;;;1.20;;
17606;SDS011;69222;52.242;20.980;2023-05-07T09:14:58;2.53;;;1.33;;
17606;SDS011;69222;52.242;20.980;2023-05-07T09:17:27;2.93;;;1.20;;
17606;SDS011;69222;52.242;20.980;2023-05-07T09:19:55;1.43;;;1.30;;
17606;SDS011;69222;52.242;20.980;2023-05-07T09:22:23;1.27;;;1.17;;
17606;SDS011;69222;52.242;20.980;2023-05-07T09:24:53;1.40;;;1.30;;
17606;SDS011;69222;52.242;20.980;2023-05-07T09:27:21;2.50;;;1.23;;
17606;SDS011;69222;52.242;20.980;2023-05-07T09:29:49;3.23;;;1.50;;
17606;SDS011;69222;52.242;20.980;2023-05-07T09:32:17;1.83;;;1.30;;
17606;SDS011;69222;52.242;20.980;2023-05-07T09:34:45;1.73;;;1.60;;
17606;SDS011;69222;52.242;20.980;2023-05-07T09:37:14;1.40;;;1.30;;
17606;SDS011;69222;52.242;20.980;2023-05-07T09:39:43;2.40;;;1.17;;
17606;SDS011;69222;52.242;20.980;2023-05-07T09:42:14;1.77;;;1.30;;
17606;SDS011;69222;52.242;20.980;2023-05-07T09:44:43;1.63;;;1.40;;
17606;SDS011;69222;52.242;20.980;2023-05-07T09:47:11;5.63;;;1.50;;
17606;SDS011;69222;52.242;20.980;2023-05-07T09:49:46;1.93;;;1.60;;
17606;SDS011;69222;52.242;20.980;2023-05-07T09:52:15;5.67;;;1.50;;
17606;SDS011;69222;52.242;20.980;2023-05-07T09:54:44;2.30;;;1.43;;
17606;SDS011;69222;52.242;20.980;2023-05-07T09:57:16;3.73;;;1.50;;
17606;SDS011;69222;52.242;20.980;2023-05-07T09:59:46;2.93;;;1.40;;
17606;SDS011;69222;52.242;20.980;2023-05-07T10:02:16;0.97;;;0.97;;
17606;SDS011;69222;52.242;20.980;2023-05-07T10:04:46;2.13;;;1.23;;
17606;SDS011;69222;52.242;20.980;2023-05-07T10:07:16;2.43;;;1.17;;
17606;SDS011;69222;52.242;20.980;2023-05-07T10:09:44;1.77;;;1.30;;
17606;SDS011;69222;52.242;20.980;2023-05-07T10:12:15;1.93;;;1.70;;
17606;SDS011;69222;52.242;20.980;2023-05-07T10:14:45;2.60;;;1.20;;
17606;SDS011;69222;52.242;20.980;2023-05-07T10:17:15;1.70;;;1.33;;
17606;SDS011;69222;52.242;20.980;2023-05-07T10:19:44;1.27;;;1.20;;
17606;SDS011;69222;52.242;20.980;2023-05-07T10:22:12;1.33;;;1.23;;
17606;SDS011;69222;52.242;20.980;2023-05-07T10:24:42;1.20;;;1.00;;
17606;SDS011;69222;52.242;20.980;2023-05-07T10:27:12;1.77;;;1.23;;
17606;SDS011;69222;52.242;20.980;2023-05-07T10:29:46;2.07;;;0.87;;
17606;SDS011;69222;52.242;20.980;2023-05-07T10:32:27;3.43;;;1.27;;
17606;SDS011;69222;52.242;20.980;2023-05-07T10:35:01;1.77;;;1.07;;
17606;SDS011;69222;52.242;20.980;2023-05-07T10:37:32;1.43;;;1.33;;
17606;SDS011;69222;52.242;20.980;2023-05-07T10:40:01;1.97;;;1.03;;
17606;SDS011;69222;52.242;20.980;2023-05-07T10:42:29;1.70;;;1.40;;
17606;SDS011;69222;52.242;20.980;2023-05-07T10:44:58;1.53;;;1.13;;
17606;SDS011;69222;52.242;20.980;2023-05-07T10:50:53;1.40;;;1.10;;
17606;SDS011;69222;52.242;20.980;2023-05-07T10:53:48;1.23;;;1.13;;
17606;SDS011;69222;52.242;20.980;2023-05-07T10:56:25;3.23;;;1.50;;
17606;SDS011;69222;52.242;20.980;2023-05-07T11:02:02;1.30;;;1.10;;
17606;SDS011;69222;52.242;20.980;2023-05-07T11:04:32;0.97;;;0.87;;
17606;SDS011;69222;52.242;20.980;2023-05-07T11:10:00;1.70;;;1.60;;
17606;SDS011;69222;52.242;20.980;2023-05-07T11:12:48;1.13;;;1.07;;
17606;SDS011;69222;52.242;20.980;2023-05-07T11:15:33;1.67;;;1.20;;
17606;SDS011;69222;52.242;20.980;2023-05-07T11:18:04;2.83;;;1.10;;
17606;SDS011;69222;52.242;20.980;2023-05-07T11:20:45;1.43;;;0.93;;
17606;SDS011;69222;52.242;20.980;2023-05-07T11:26:41;2.90;;;0.90;;
17606;SDS011;69222;52.242;20.980;2023-05-07T11:29:14;1.53;;;1.20;;
17606;SDS011;69222;52.242;20.980;2023-05-07T11:31:51;1.67;;;1.30;;
17606;SDS011;69222;52.242;20.980;2023-05-07T11:34:24;2.47;;;1.30;;
17606;SDS011;69222;52.242;20.980;2023-05-07T11:36:53;1.67;;;1.27;;
17606;SDS011;69222;52.242;20.980;2023-05-07T11:39:24;2.87;;;1.50;;
17606;SDS011;69222;52.242;20.980;2023-05-07T11:41:56;1.70;;;1.50;;
17606;SDS011;69222;52.242;20.980;2023-05-07T11:44:24;1.13;;;1.00;;
17606;SDS011;69222;52.242;20.980;2023-05-07T11:46:52;1.73;;;1.03;;
17606;SDS011;69222;52.242;20.980;2023-05-07T11:49:20;1.40;;;1.30;;
17606;SDS011;69222;52.242;20.980;2023-05-07T11:51:53;1.77;;;1.03;;
17606;SDS011;69222;52.242;20.980;2023-05-07T11:54:21;2.43;;;1.20;;
17606;SDS011;69222;52.242;20.980;2023-05-07T11:56:49;1.37;;;1.10;;
17606;SDS011;69222;52.242;20.980;2023-05-07T11:59:17;1.03;;;0.93;;
17606;SDS011;69222;52.242;20.980;2023-05-07T12:01:46;1.27;;;0.90;;
17606;SDS011;69222;52.242;20.980;2023-05-07T12:04:18;2.13;;;1.70;;
17606;SDS011;69222;52.242;20.980;2023-05-07T12:06:48;2.20;;;1.20;;
17606;SDS011;69222;52.242;20.980;2023-05-07T12:09:18;1.40;;;1.10;;
17606;SDS011;69222;52.242;20.980;2023-05-07T12:11:47;1.20;;;1.00;;
17606;SDS011;69222;52.242;20.980;2023-05-07T12:14:15;1.60;;;1.33;;
17606;SDS011;69222;52.242;20.980;2023-05-07T12:16:43;1.37;;;1.27;;
17606;SDS011;69222;52.242;20.980;2023-05-07T12:19:12;1.53;;;1.40;;
17606;SDS011;69222;52.242;20.980;2023-05-07T12:21:41;1.60;;;1.10;;
17606;SDS011;69222;52.242;20.980;2023-05-07T12:24:09;2.17;;;0.90;;
17606;SDS011;69222;52.242;20.980;2023-05-07T12:26:39;1.20;;;1.10;;
17606;SDS011;69222;52.242;20.980;2023-05-07T12:29:08;1.50;;;1.40;;
17606;SDS011;69222;52.242;20.980;2023-05-07T12:31:36;1.00;;;0.90;;
17606;SDS011;69222;52.242;20.980;2023-05-07T12:34:04;1.57;;;1.17;;
17606;SDS011;69222;52.242;20.980;2023-05-07T12:36:38;1.40;;;1.30;;
17606;SDS011;69222;52.242;20.980;2023-05-07T12:39:07;1.30;;;1.10;;
17606;SDS011;69222;52.242;20.980;2023-05-07T12:41:36;1.70;;;1.27;;
17606;SDS011;69222;52.242;20.980;2023-05-07T12:44:19;2.20;;;1.00;;
17606;SDS011;69222;52.242;20.980;2023-05-07T12:46:49;1.27;;;1.17;;
17606;SDS011;69222;52.242;20.980;2023-05-07T12:49:17;3.13;;;1.40;;
17606;SDS011;69222;52.242;20.980;2023-05-07T12:51:46;1.40;;;1.10;;
17606;SDS011;69222;52.242;20.980;2023-05-07T12:54:27;1.43;;;1.10;;
17606;SDS011;69222;52.242;20.980;2023-05-07T12:57:01;2.47;;;1.50;;
17606;SDS011;69222;52.242;20.980;2023-05-07T12:59:30;2.27;;;1.40;;
17606;SDS011;69222;52.242;20.980;2023-05-07T13:01:59;2.10;;;0.93;;
17606;SDS011;69222;52.242;20.980;2023-05-07T13:04:27;1.97;;;1.03;;
17606;SDS011;69222;52.242;20.980;2023-05-07T13:06:55;1.07;;;1.00;;
17606;SDS011;69222;52.242;20.980;2023-05-07T13:09:23;1.47;;;0.90;;
17606;SDS011;69222;52.242;20.980;2023-05-07T13:11:51;1.33;;;1.10;;
17606;SDS011;69222;52.242;20.980;2023-05-07T13:14:21;1.10;;;0.90;;
17606;SDS011;69222;52.242;20.980;2023-05-07T13:16:49;2.67;;;1.40;;
17606;SDS011;69222;52.242;20.980;2023-05-07T13:19:17;1.13;;;1.03;;
17606;SDS011;69222;52.242;20.980;2023-05-07T13:21:45;1.30;;;1.20;;
17606;SDS011;69222;52.242;20.980;2023-05-07T13:24:13;1.83;;;1.30;;
17606;SDS011;69222;52.242;20.980;2023-05-07T13:26:41;3.80;;;1.43;;
17606;SDS011;69222;52.242;20.980;2023-05-07T13:29:11;1.70;;;1.50;;
17606;SDS011;69222;52.242;20.980;2023-05-07T13:31:40;2.37;;;1.10;;
17606;SDS011;69222;52.242;20.980;2023-05-07T13:34:10;4.80;;;1.20;;
17606;SDS011;69222;52.242;20.980;2023-05-07T13:36:38;1.00;;;0.90;;
17606;SDS011;69222;52.242;20.980;2023-05-07T13:39:08;1.70;;;1.00;;
17606;SDS011;69222;52.242;20.980;2023-05-07T13:41:36;3.30;;;0.97;;
17606;SDS011;69222;52.242;20.980;2023-05-07T13:44:04;1.27;;;0.90;;
17606;SDS011;69222;52.242;20.980;2023-05-07T13:46:32;1.17;;;0.93;;
17606;SDS011;69222;52.242;20.980;2023-05-07T13:49:01;3.37;;;1.27;;
17606;SDS011;69222;52.242;20.980;2023-05-07T13:51:29;1.30;;;1.20;;
17606;SDS011;69222;52.242;20.980;2023-05-07T13:53:57;1.90;;;1.00;;
17606;SDS011;69222;52.242;20.980;2023-05-07T13:56:25;1.93;;;1.10;;
17606;SDS011;69222;52.242;20.980;2023-05-07T13:58:54;1.37;;;1.00;;
17606;SDS011;69222;52.242;20.980;2023-05-07T14:01:26;1.13;;;1.03;;
17606;SDS011;69222;52.242;20.980;2023-05-07T14:03:55;1.63;;;1.50;;
17606;SDS011;69222;52.242;20.980;2023-05-07T14:06:25;1.20;;;1.10;;
17606;SDS011;69222;52.242;20.980;2023-05-07T14:08:53;1.90;;;1.17;;
17606;SDS011;69222;52.242;20.980;2023-05-07T14:11:21;1.27;;;1.00;;
17606;SDS011;69222;52.242;20.980;2023-05-07T14:13:49;1.57;;;1.10;;
17606;SDS011;69222;52.242;20.980;2023-05-07T14:16:17;1.97;;;1.13;;
17606;SDS011;69222;52.242;20.980;2023-05-07T14:18:45;2.97;;;1.30;;
17606;SDS011;69222;52.242;20.980;2023-05-07T14:21:13;2.20;;;1.50;;
17606;SDS011;69222;52.242;20.980;2023-05-07T14:23:42;1.83;;;1.13;;
17606;SDS011;69222;52.242;20.980;2023-05-07T14:26:10;2.87;;;1.27;;
17606;SDS011;69222;52.242;20.980;2023-05-07T14:28:37;1.10;;;1.00;;
17606;SDS011;69222;52.242;20.980;2023-05-07T14:31:06;1.83;;;1.60;;
17606;SDS011;69222;52.242;20.980;2023-05-07T14:33:34;3.73;;;2.80;;
17606;SDS011;69222;52.242;20.980;2023-05-07T14:36:02;1.60;;;1.50;;
17606;SDS011;69222;52.242;20.980;2023-05-07T14:38:30;1.63;;;1.53;;
17606;SDS011;69222;52.242;20.980;2023-05-07T14:41:00;1.13;;;1.00;;
17606;SDS011;69222;52.242;20.980;2023-05-07T14:43:28;2.03;;;0.93;;
17606;SDS011;69222;52.242;20.980;2023-05-07T14:45:56;1.30;;;1.20;;
17606;SDS011;69222;52.242;20.980;2023-05-07T14:48:24;1.70;;;1.03;;
17606;SDS011;69222;52.242;20.980;2023-05-07T14:50:52;3.43;;;1.80;;
17606;SDS011;69222;52.242;20.980;2023-05-07T14:53:19;2.30;;;1.87;;
17606;SDS011;69222;52.242;20.980;2023-05-07T14:55:47;1.37;;;1.23;;